sensor_id;sensor_type;location;lat;lon;timestamp;pressure;altitude;pressure_sealevel;temperature;humidity
63281;BME280;49406;51.044;3.766;2022-11-15T00:01:33;100844.15;;;11.01;100.00
63281;BME280;49406;51.044;3.766;2022-11-15T00:04:10;100846.98;;;11.07;100.00
63281;BME280;49406;51.044;3.766;2022-11-15T00:06:45;100849.30;;;11.13;100.00
63281;BME280;49406;51.044;3.766;2022-11-15T00:09:20;100850.55;;;11.16;100.00
63281;BME280;49406;51.044;3.766;2022-11-15T00:11:54;100848.81;;;11.20;100.00
63281;BME280;49406;51.044;3.766;2022-11-15T00:14:29;100846.55;;;11.24;100.00
63281;BME280;49406;51.044;3.766;2022-11-15T00:17:04;100844.67;;;11.28;100.00
63281;BME280;49406;51.044;3.766;2022-11-15T00:19:38;100841.72;;;11.34;100.00
63281;BME280;49406;51.044;3.766;2022-11-15T00:22:13;100840.67;;;11.37;100.00
63281;BME280;49406;51.044;3.766;2022-11-15T00:24:48;100847.00;;;11.42;100.00
63281;BME280;49406;51.044;3.766;2022-11-15T00:27:22;100847.38;;;11.43;100.00
63281;BME280;49406;51.044;3.766;2022-11-15T00:29:57;100845.11;;;11.45;100.00
63281;BME280;49406;51.044;3.766;2022-11-15T00:32:33;100846.69;;;11.47;100.00
63281;BME280;49406;51.044;3.766;2022-11-15T00:35:08;100847.04;;;11.49;100.00
63281;BME280;49406;51.044;3.766;2022-11-15T00:37:43;100851.08;;;11.51;100.00
63281;BME280;49406;51.044;3.766;2022-11-15T00:40:18;100848.98;;;11.49;100.00
63281;BME280;49406;51.044;3.766;2022-11-15T00:42:51;100850.33;;;11.40;100.00
63281;BME280;49406;51.044;3.766;2022-11-15T00:45:26;100851.06;;;11.46;100.00
63281;BME280;49406;51.044;3.766;2022-11-15T00:48:01;100848.44;;;11.47;100.00
63281;BME280;49406;51.044;3.766;2022-11-15T00:50:35;100850.19;;;11.48;100.00
63281;BME280;49406;51.044;3.766;2022-11-15T00:53:10;100852.46;;;11.49;100.00
63281;BME280;49406;51.044;3.766;2022-11-15T00:55:44;100850.02;;;11.48;100.00
63281;BME280;49406;51.044;3.766;2022-11-15T00:58:20;100846.34;;;11.46;100.00
63281;BME280;49406;51.044;3.766;2022-11-15T01:00:55;100842.84;;;11.45;100.00
63281;BME280;49406;51.044;3.766;2022-11-15T01:03:29;100840.38;;;11.43;100.00
63281;BME280;49406;51.044;3.766;2022-11-15T01:06:07;100839.29;;;11.42;100.00
63281;BME280;49406;51.044;3.766;2022-11-15T01:08:41;100841.73;;;11.40;100.00
63281;BME280;49406;51.044;3.766;2022-11-15T01:11:16;100847.48;;;11.28;100.00
63281;BME280;49406;51.044;3.766;2022-11-15T01:13:51;100845.04;;;11.32;100.00
63281;BME280;49406;51.044;3.766;2022-11-15T01:16:25;100844.17;;;11.34;100.00
63281;BME280;49406;51.044;3.766;2022-11-15T01:19:00;100845.23;;;11.34;100.00
63281;BME280;49406;51.044;3.766;2022-11-15T01:21:34;100842.95;;;11.34;100.00
63281;BME280;49406;51.044;3.766;2022-11-15T01:24:09;100840.15;;;11.35;100.00
63281;BME280;49406;51.044;3.766;2022-11-15T01:26:46;100840.67;;;11.37;100.00
63281;BME280;49406;51.044;3.766;2022-11-15T01:29:20;100837.00;;;11.40;100.00
63281;BME280;49406;51.044;3.766;2022-11-15T01:31:55;100832.63;;;11.37;100.00
63281;BME280;49406;51.044;3.766;2022-11-15T01:34:30;100833.67;;;11.39;100.00
63281;BME280;49406;51.044;3.766;2022-11-15T01:37:04;100826.33;;;11.39;100.00
63281;BME280;49406;51.044;3.766;2022-11-15T01:39:39;100828.08;;;11.39;100.00
63281;BME280;49406;51.044;3.766;2022-11-15T01:42:15;100829.48;;;11.40;100.00
63281;BME280;49406;51.044;3.766;2022-11-15T01:44:50;100832.63;;;11.40;100.00
63281;BME280;49406;51.044;3.766;2022-11-15T01:47:28;100830.19;;;11.41;100.00
63281;BME280;49406;51.044;3.766;2022-11-15T01:50:06;100828.63;;;11.42;100.00
63281;BME280;49406;51.044;3.766;2022-11-15T01:52:42;100827.72;;;11.35;100.00
63281;BME280;49406;51.044;3.766;2022-11-15T01:55:20;100827.20;;;11.33;100.00
63281;BME280;49406;51.044;3.766;2022-11-15T01:57:57;100821.95;;;11.37;100.00
63281;BME280;49406;51.044;3.766;2022-11-15T02:00:34;100816.52;;;11.37;100.00
63281;BME280;49406;51.044;3.766;2022-11-15T02:03:09;100811.80;;;11.36;100.00
63281;BME280;49406;51.044;3.766;2022-11-15T02:05:44;100812.84;;;11.35;100.00
63281;BME280;49406;51.044;3.766;2022-11-15T02:08:19;100809.16;;;11.35;100.00
63281;BME280;49406;51.044;3.766;2022-11-15T02:10:54;100810.39;;;11.32;100.00
63281;BME280;49406;51.044;3.766;2022-11-15T02:13:27;100808.81;;;11.32;100.00
63281;BME280;49406;51.044;3.766;2022-11-15T02:16:16;100808.64;;;11.32;100.00
63281;BME280;49406;51.044;3.766;2022-11-15T02:19:00;100807.41;;;11.33;100.00
63281;BME280;49406;51.044;3.766;2022-11-15T02:21:36;100804.09;;;11.32;100.00
63281;BME280;49406;51.044;3.766;2022-11-15T02:25:01;100798.84;;;11.33;100.00
63281;BME280;49406;51.044;3.766;2022-11-15T02:30:43;100788.86;;;11.33;100.00
63281;BME280;49406;51.044;3.766;2022-11-15T02:33:28;100785.54;;;11.32;100.00
63281;BME280;49406;51.044;3.766;2022-11-15T02:36:09;100784.30;;;11.31;100.00
63281;BME280;49406;51.044;3.766;2022-11-15T02:38:51;100789.70;;;11.24;100.00
63281;BME280;49406;51.044;3.766;2022-11-15T02:41:34;100784.23;;;11.18;100.00
63281;BME280;49406;51.044;3.766;2022-11-15T02:44:16;100788.30;;;11.26;100.00
63281;BME280;49406;51.044;3.766;2022-11-15T02:46:55;100780.62;;;11.28;100.00
63281;BME280;49406;51.044;3.766;2022-11-15T02:49:51;100774.84;;;11.28;100.00
63281;BME280;49406;51.044;3.766;2022-11-15T02:52:26;100769.77;;;11.28;100.00
63281;BME280;49406;51.044;3.766;2022-11-15T02:55:02;100767.67;;;11.27;100.00
63281;BME280;49406;51.044;3.766;2022-11-15T02:57:38;100765.35;;;11.24;100.00
63281;BME280;49406;51.044;3.766;2022-11-15T03:00:18;100760.80;;;11.23;100.00
63281;BME280;49406;51.044;3.766;2022-11-15T03:03:08;100764.30;;;11.22;100.00
63281;BME280;49406;51.044;3.766;2022-11-15T03:05:53;100759.91;;;11.18;100.00
63281;BME280;49406;51.044;3.766;2022-11-15T03:08:35;100759.20;;;11.17;100.00
63281;BME280;49406;51.044;3.766;2022-11-15T03:11:15;100750.64;;;11.17;100.00
63281;BME280;49406;51.044;3.766;2022-11-15T03:13:55;100749.41;;;11.16;100.00
63281;BME280;49406;51.044;3.766;2022-11-15T03:16:37;100756.76;;;11.14;100.00
63281;BME280;49406;51.044;3.766;2022-11-15T03:19:17;100764.98;;;11.12;100.00
63281;BME280;49406;51.044;3.766;2022-11-15T03:21:53;100764.38;;;10.99;100.00
63281;BME280;49406;51.044;3.766;2022-11-15T03:24:31;100768.41;;;11.02;100.00
63281;BME280;49406;51.044;3.766;2022-11-15T03:27:08;100766.49;;;11.03;100.00
63281;BME280;49406;51.044;3.766;2022-11-15T03:29:48;100768.77;;;11.03;100.00
63281;BME280;49406;51.044;3.766;2022-11-15T03:32:28;100768.58;;;11.00;100.00
63281;BME280;49406;51.044;3.766;2022-11-15T03:35:08;100767.88;;;10.98;100.00
63281;BME280;49406;51.044;3.766;2022-11-15T03:37:48;100764.36;;;10.95;100.00
63281;BME280;49406;51.044;3.766;2022-11-15T03:40:27;100764.48;;;10.86;100.00
63281;BME280;49406;51.044;3.766;2022-11-15T03:43:09;100764.61;;;10.77;100.00
63281;BME280;49406;51.044;3.766;2022-11-15T03:45:49;100768.29;;;10.78;100.00
63281;BME280;49406;51.044;3.766;2022-11-15T03:48:27;100768.94;;;10.75;100.00
63281;BME280;49406;51.044;3.766;2022-11-15T03:51:05;100765.95;;;10.72;100.00
63281;BME280;49406;51.044;3.766;2022-11-15T03:53:41;100764.69;;;10.65;100.00
63281;BME280;49406;51.044;3.766;2022-11-15T03:56:16;100767.58;;;10.52;100.00
63281;BME280;49406;51.044;3.766;2022-11-15T03:58:51;100767.41;;;10.53;100.00
63281;BME280;49406;51.044;3.766;2022-11-15T04:01:25;100765.13;;;10.50;100.00
63281;BME280;49406;51.044;3.766;2022-11-15T04:03:58;100764.40;;;10.46;100.00
63281;BME280;49406;51.044;3.766;2022-11-15T04:06:33;100764.89;;;10.42;100.00
63281;BME280;49406;51.044;3.766;2022-11-15T04:09:08;100771.27;;;10.31;100.00
63281;BME280;49406;51.044;3.766;2022-11-15T04:11:42;100772.31;;;10.29;100.00
63281;BME280;49406;51.044;3.766;2022-11-15T04:14:17;100774.43;;;10.34;100.00
63281;BME280;49406;51.044;3.766;2022-11-15T04:16:51;100770.73;;;10.31;100.00
63281;BME280;49406;51.044;3.766;2022-11-15T04:19:26;100771.98;;;10.31;100.00
63281;BME280;49406;51.044;3.766;2022-11-15T04:22:29;100770.02;;;10.26;100.00
63281;BME280;49406;51.044;3.766;2022-11-15T04:25:35;100772.46;;;10.11;100.00
63281;BME280;49406;51.044;3.766;2022-11-15T04:28:09;100776.67;;;10.12;100.00
63281;BME280;49406;51.044;3.766;2022-11-15T04:30:44;100773.85;;;10.09;100.00
63281;BME280;49406;51.044;3.766;2022-11-15T04:33:20;100770.81;;;10.04;100.00
63281;BME280;49406;51.044;3.766;2022-11-15T04:35:55;100774.52;;;9.88;100.00
63281;BME280;49406;51.044;3.766;2022-11-15T04:38:47;100771.66;;;9.83;100.00
63281;BME280;49406;51.044;3.766;2022-11-15T04:41:22;100772.89;;;9.82;100.00
63281;BME280;49406;51.044;3.766;2022-11-15T04:43:57;100767.61;;;9.78;100.00
63281;BME280;49406;51.044;3.766;2022-11-15T04:46:31;100764.23;;;9.73;100.00
63281;BME280;49406;51.044;3.766;2022-11-15T04:49:06;100766.58;;;9.64;100.00
63281;BME280;49406;51.044;3.766;2022-11-15T04:51:41;100767.98;;;9.48;100.00
63281;BME280;49406;51.044;3.766;2022-11-15T04:54:15;100765.55;;;9.49;100.00
63281;BME280;49406;51.044;3.766;2022-11-15T04:56:50;100763.25;;;9.46;100.00
63281;BME280;49406;51.044;3.766;2022-11-15T04:59:25;100760.77;;;9.42;100.00
63281;BME280;49406;51.044;3.766;2022-11-15T05:01:59;100761.02;;;9.36;100.00
63281;BME280;49406;51.044;3.766;2022-11-15T05:04:34;100757.74;;;9.24;100.00
63281;BME280;49406;51.044;3.766;2022-11-15T05:07:09;100757.76;;;9.10;100.00
63281;BME280;49406;51.044;3.766;2022-11-15T05:09:43;100756.75;;;9.13;100.00
63281;BME280;49406;51.044;3.766;2022-11-15T05:12:18;100758.96;;;9.09;100.00
63281;BME280;49406;51.044;3.766;2022-11-15T05:14:52;100756.60;;;9.03;100.00
63281;BME280;49406;51.044;3.766;2022-11-15T05:17:25;100755.00;;;9.00;100.00
63281;BME280;49406;51.044;3.766;2022-11-15T05:20:00;100750.31;;;8.89;100.00
63281;BME280;49406;51.044;3.766;2022-11-15T05:22:33;100751.64;;;8.84;100.00
63281;BME280;49406;51.044;3.766;2022-11-15T05:25:08;100750.52;;;8.90;100.00
63281;BME280;49406;51.044;3.766;2022-11-15T05:27:43;100755.02;;;8.89;100.00
63281;BME280;49406;51.044;3.766;2022-11-15T05:30:18;100755.17;;;8.87;100.00
63281;BME280;49406;51.044;3.766;2022-11-15T05:32:52;100753.77;;;8.87;100.00
63281;BME280;49406;51.044;3.766;2022-11-15T05:35:31;100749.90;;;8.84;100.00
63281;BME280;49406;51.044;3.766;2022-11-15T05:38:09;100748.73;;;8.75;100.00
63281;BME280;49406;51.044;3.766;2022-11-15T05:40:43;100742.08;;;8.60;100.00
63281;BME280;49406;51.044;3.766;2022-11-15T05:43:18;100742.42;;;8.60;100.00
63281;BME280;49406;51.044;3.766;2022-11-15T05:45:53;100747.25;;;8.57;100.00
63281;BME280;49406;51.044;3.766;2022-11-15T05:48:27;100746.48;;;8.53;100.00
63281;BME280;49406;51.044;3.766;2022-11-15T05:51:03;100747.30;;;8.48;100.00
63281;BME280;49406;51.044;3.766;2022-11-15T05:53:37;100740.41;;;8.42;100.00
63281;BME280;49406;51.044;3.766;2022-11-15T05:56:10;100738.31;;;8.41;100.00
63281;BME280;49406;51.044;3.766;2022-11-15T05:58:45;100737.23;;;8.30;100.00
63281;BME280;49406;51.044;3.766;2022-11-15T06:01:19;100737.66;;;8.34;100.00
63281;BME280;49406;51.044;3.766;2022-11-15T06:03:54;100737.17;;;8.36;100.00
63281;BME280;49406;51.044;3.766;2022-11-15T06:06:28;100737.14;;;8.35;100.00
63281;BME280;49406;51.044;3.766;2022-11-15T06:09:03;100741.15;;;8.35;100.00
63281;BME280;49406;51.044;3.766;2022-11-15T06:11:37;100739.85;;;8.30;100.00
63281;BME280;49406;51.044;3.766;2022-11-15T06:14:12;100745.18;;;8.26;100.00
63281;BME280;49406;51.044;3.766;2022-11-15T06:16:47;100749.36;;;8.16;100.00
63281;BME280;49406;51.044;3.766;2022-11-15T06:19:21;100750.70;;;8.23;100.00
63281;BME280;49406;51.044;3.766;2022-11-15T06:21:56;100753.98;;;8.22;100.00
63281;BME280;49406;51.044;3.766;2022-11-15T06:24:31;100750.63;;;8.19;100.00
63281;BME280;49406;51.044;3.766;2022-11-15T06:27:05;100751.14;;;8.18;100.00
63281;BME280;49406;51.044;3.766;2022-11-15T06:29:40;100750.23;;;8.16;100.00
63281;BME280;49406;51.044;3.766;2022-11-15T06:32:14;100749.69;;;8.14;100.00
63281;BME280;49406;51.044;3.766;2022-11-15T06:34:49;100738.67;;;8.11;100.00
63281;BME280;49406;51.044;3.766;2022-11-15T06:37:24;100737.16;;;8.05;100.00
63281;BME280;49406;51.044;3.766;2022-11-15T06:39:58;100742.79;;;7.98;100.00
63281;BME280;49406;51.044;3.766;2022-11-15T06:42:33;100745.30;;;8.02;100.00
63281;BME280;49406;51.044;3.766;2022-11-15T06:45:09;100743.20;;;8.02;100.00
63281;BME280;49406;51.044;3.766;2022-11-15T06:47:47;100739.11;;;7.97;100.00
63281;BME280;49406;51.044;3.766;2022-11-15T06:50:22;100744.83;;;7.95;100.00
63281;BME280;49406;51.044;3.766;2022-11-15T06:52:58;100745.15;;;7.84;100.00
63281;BME280;49406;51.044;3.766;2022-11-15T06:55:34;100738.29;;;7.90;100.00
63281;BME280;49406;51.044;3.766;2022-11-15T06:58:08;100732.62;;;7.93;100.00
63281;BME280;49406;51.044;3.766;2022-11-15T07:00:43;100733.00;;;7.95;100.00
63281;BME280;49406;51.044;3.766;2022-11-15T07:03:18;100732.87;;;7.98;100.00
63281;BME280;49406;51.044;3.766;2022-11-15T07:05:54;100732.09;;;8.04;100.00
63281;BME280;49406;51.044;3.766;2022-11-15T07:08:30;100735.83;;;8.07;100.00
63281;BME280;49406;51.044;3.766;2022-11-15T07:11:06;100738.01;;;8.13;100.00
63281;BME280;49406;51.044;3.766;2022-11-15T07:13:41;100740.11;;;8.14;100.00
63281;BME280;49406;51.044;3.766;2022-11-15T07:16:16;100733.08;;;8.09;100.00
63281;BME280;49406;51.044;3.766;2022-11-15T07:18:50;100729.20;;;8.18;100.00
63281;BME280;49406;51.044;3.766;2022-11-15T07:21:25;100727.73;;;8.25;100.00
63281;BME280;49406;51.044;3.766;2022-11-15T07:23:58;100723.27;;;8.28;100.00
63281;BME280;49406;51.044;3.766;2022-11-15T07:26:32;100718.30;;;8.33;100.00
63281;BME280;49406;51.044;3.766;2022-11-15T07:29:07;100720.02;;;8.41;100.00
63281;BME280;49406;51.044;3.766;2022-11-15T07:31:42;100716.11;;;8.49;100.00
63281;BME280;49406;51.044;3.766;2022-11-15T07:34:16;100705.23;;;8.56;100.00
63281;BME280;49406;51.044;3.766;2022-11-15T07:36:51;100702.91;;;8.63;100.00
63281;BME280;49406;51.044;3.766;2022-11-15T07:39:25;100697.98;;;8.72;100.00
63281;BME280;49406;51.044;3.766;2022-11-15T07:42:00;100691.59;;;8.77;100.00
63281;BME280;49406;51.044;3.766;2022-11-15T07:44:52;100691.13;;;8.82;100.00
63281;BME280;49406;51.044;3.766;2022-11-15T07:47:29;100685.35;;;8.94;100.00
63281;BME280;49406;51.044;3.766;2022-11-15T07:50:04;100679.52;;;9.03;100.00
63281;BME280;49406;51.044;3.766;2022-11-15T07:52:39;100674.21;;;9.11;100.00
63281;BME280;49406;51.044;3.766;2022-11-15T07:55:14;100670.23;;;9.14;100.00
63281;BME280;49406;51.044;3.766;2022-11-15T07:57:49;100665.22;;;9.17;100.00
63281;BME280;49406;51.044;3.766;2022-11-15T08:00:23;100669.52;;;9.27;100.00
63281;BME280;49406;51.044;3.766;2022-11-15T08:03:04;100670.28;;;9.33;100.00
63281;BME280;49406;51.044;3.766;2022-11-15T08:05:40;100663.67;;;9.37;100.00
63281;BME280;49406;51.044;3.766;2022-11-15T08:08:16;100665.62;;;9.38;100.00
63281;BME280;49406;51.044;3.766;2022-11-15T08:10:50;100659.28;;;9.33;100.00
63281;BME280;49406;51.044;3.766;2022-11-15T08:13:25;100661.08;;;9.38;100.00
63281;BME280;49406;51.044;3.766;2022-11-15T08:16:00;100666.73;;;9.43;100.00
63281;BME280;49406;51.044;3.766;2022-11-15T08:18:36;100667.80;;;9.46;100.00
63281;BME280;49406;51.044;3.766;2022-11-15T08:21:11;100672.70;;;9.48;100.00
63281;BME280;49406;51.044;3.766;2022-11-15T08:23:47;100677.89;;;9.43;100.00
63281;BME280;49406;51.044;3.766;2022-11-15T08:26:22;100671.88;;;9.54;100.00
63281;BME280;49406;51.044;3.766;2022-11-15T08:28:58;100681.03;;;9.60;100.00
63281;BME280;49406;51.044;3.766;2022-11-15T08:31:32;100679.70;;;9.69;100.00
63281;BME280;49406;51.044;3.766;2022-11-15T08:34:07;100677.75;;;9.65;100.00
63281;BME280;49406;51.044;3.766;2022-11-15T08:36:42;100669.98;;;9.76;100.00
63281;BME280;49406;51.044;3.766;2022-11-15T08:39:17;100666.42;;;9.88;100.00
63281;BME280;49406;51.044;3.766;2022-11-15T08:41:51;100659.70;;;9.98;100.00
63281;BME280;49406;51.044;3.766;2022-11-15T08:44:26;100660.41;;;10.01;100.00
63281;BME280;49406;51.044;3.766;2022-11-15T08:47:01;100659.54;;;10.01;100.00
63281;BME280;49406;51.044;3.766;2022-11-15T08:49:35;100661.38;;;10.13;100.00
63281;BME280;49406;51.044;3.766;2022-11-15T08:52:10;100649.59;;;10.23;100.00
63281;BME280;49406;51.044;3.766;2022-11-15T08:54:44;100648.42;;;10.28;100.00
63281;BME280;49406;51.044;3.766;2022-11-15T08:57:17;100647.07;;;10.38;100.00
63281;BME280;49406;51.044;3.766;2022-11-15T08:59:50;100644.98;;;10.41;100.00
63281;BME280;49406;51.044;3.766;2022-11-15T09:02:25;100639.66;;;10.57;100.00
63281;BME280;49406;51.044;3.766;2022-11-15T09:04:59;100637.96;;;10.70;100.00
63281;BME280;49406;51.044;3.766;2022-11-15T09:07:34;100636.09;;;10.79;100.00
63281;BME280;49406;51.044;3.766;2022-11-15T09:10:10;100626.29;;;10.76;100.00
63281;BME280;49406;51.044;3.766;2022-11-15T09:12:44;100625.44;;;10.85;99.87
63281;BME280;49406;51.044;3.766;2022-11-15T09:15:21;100622.15;;;10.92;99.11
63281;BME280;49406;51.044;3.766;2022-11-15T09:17:59;100621.64;;;10.97;98.72
63281;BME280;49406;51.044;3.766;2022-11-15T09:20:32;100621.77;;;10.90;98.46
63281;BME280;49406;51.044;3.766;2022-11-15T09:23:07;100617.61;;;10.97;97.80
63281;BME280;49406;51.044;3.766;2022-11-15T09:25:41;100618.66;;;10.99;97.82
63281;BME280;49406;51.044;3.766;2022-11-15T09:28:16;100608.48;;;10.88;97.16
63281;BME280;49406;51.044;3.766;2022-11-15T09:30:49;100608.48;;;10.91;98.99
63281;BME280;49406;51.044;3.766;2022-11-15T09:33:23;100603.45;;;11.02;97.28
63281;BME280;49406;51.044;3.766;2022-11-15T09:36:02;100602.93;;;11.05;96.86
63281;BME280;49406;51.044;3.766;2022-11-15T09:38:37;100599.27;;;11.10;96.38
63281;BME280;49406;51.044;3.766;2022-11-15T09:41:33;100598.20;;;11.05;96.18
63281;BME280;49406;51.044;3.766;2022-11-15T09:44:22;100592.11;;;11.16;96.05
63281;BME280;49406;51.044;3.766;2022-11-15T09:47:10;100580.23;;;11.26;95.39
63281;BME280;49406;51.044;3.766;2022-11-15T09:49:55;100575.48;;;11.22;94.69
63281;BME280;49406;51.044;3.766;2022-11-15T09:52:32;100577.44;;;11.36;95.33
63281;BME280;49406;51.044;3.766;2022-11-15T09:55:10;100576.38;;;11.40;93.91
63281;BME280;49406;51.044;3.766;2022-11-15T09:57:52;100569.04;;;11.36;93.56
63281;BME280;49406;51.044;3.766;2022-11-15T10:00:32;100562.39;;;11.52;92.91
63281;BME280;49406;51.044;3.766;2022-11-15T10:03:13;100564.48;;;11.67;91.80
63281;BME280;49406;51.044;3.766;2022-11-15T10:05:50;100561.87;;;11.65;92.70
63281;BME280;49406;51.044;3.766;2022-11-15T10:08:35;100554.16;;;11.73;91.31
63281;BME280;49406;51.044;3.766;2022-11-15T10:11:14;100549.79;;;11.80;90.60
63281;BME280;49406;51.044;3.766;2022-11-15T10:13:48;100547.83;;;11.75;92.24
63281;BME280;49406;51.044;3.766;2022-11-15T10:16:56;100542.08;;;11.85;91.08
63281;BME280;49406;51.044;3.766;2022-11-15T10:19:41;100541.02;;;11.95;90.07
63281;BME280;49406;51.044;3.766;2022-11-15T10:22:27;100535.23;;;11.88;90.02
63281;BME280;49406;51.044;3.766;2022-11-15T10:25:10;100530.52;;;11.85;89.54
63281;BME280;49406;51.044;3.766;2022-11-15T10:27:47;100528.05;;;11.96;89.51
63281;BME280;49406;51.044;3.766;2022-11-15T10:30:34;100522.96;;;11.98;88.88
63281;BME280;49406;51.044;3.766;2022-11-15T10:33:18;100519.82;;;11.90;88.79
63281;BME280;49406;51.044;3.766;2022-11-15T10:36:23;100514.55;;;11.96;89.12
63281;BME280;49406;51.044;3.766;2022-11-15T10:38:59;100506.63;;;12.13;87.56
63281;BME280;49406;51.044;3.766;2022-11-15T10:41:34;100495.77;;;12.08;88.00
63281;BME280;49406;51.044;3.766;2022-11-15T10:44:23;100499.63;;;12.12;88.19
63281;BME280;49406;51.044;3.766;2022-11-15T10:49:55;100486.70;;;12.37;85.99
63281;BME280;49406;51.044;3.766;2022-11-15T10:52:31;100478.84;;;12.33;86.55
63281;BME280;49406;51.044;3.766;2022-11-15T10:55:23;100473.92;;;12.35;86.23
63281;BME280;49406;51.044;3.766;2022-11-15T10:58:03;100466.29;;;12.52;85.04
63281;BME280;49406;51.044;3.766;2022-11-15T11:00:38;100462.06;;;12.56;84.39
63281;BME280;49406;51.044;3.766;2022-11-15T11:03:29;100453.81;;;12.55;85.69
63281;BME280;49406;51.044;3.766;2022-11-15T11:06:10;100445.87;;;12.67;84.30
63281;BME280;49406;51.044;3.766;2022-11-15T11:09:00;100446.62;;;12.84;83.82
63281;BME280;49406;51.044;3.766;2022-11-15T11:11:47;100432.93;;;12.84;83.30
63281;BME280;49406;51.044;3.766;2022-11-15T11:14:24;100425.91;;;12.84;83.31
63281;BME280;49406;51.044;3.766;2022-11-15T11:17:05;100423.58;;;12.91;82.35
63281;BME280;49406;51.044;3.766;2022-11-15T11:19:56;100420.85;;;13.03;81.29
63281;BME280;49406;51.044;3.766;2022-11-15T11:22:41;100415.27;;;13.00;81.73
63281;BME280;49406;51.044;3.766;2022-11-15T11:25:30;100417.16;;;13.04;82.17
63281;BME280;49406;51.044;3.766;2022-11-15T11:28:25;100412.99;;;13.19;81.19
63281;BME280;49406;51.044;3.766;2022-11-15T11:31:13;100403.69;;;13.20;80.64
63281;BME280;49406;51.044;3.766;2022-11-15T11:33:58;100401.78;;;13.17;80.60
63281;BME280;49406;51.044;3.766;2022-11-15T11:36:42;100395.11;;;13.16;80.30
63281;BME280;49406;51.044;3.766;2022-11-15T11:39:27;100390.42;;;13.31;80.31
63281;BME280;49406;51.044;3.766;2022-11-15T11:42:13;100384.65;;;13.30;81.22
63281;BME280;49406;51.044;3.766;2022-11-15T11:44:58;100379.19;;;13.33;80.78
63281;BME280;49406;51.044;3.766;2022-11-15T11:47:43;100371.63;;;13.33;80.13
63281;BME280;49406;51.044;3.766;2022-11-15T11:50:23;100363.61;;;13.44;80.29
63281;BME280;49406;51.044;3.766;2022-11-15T11:53:03;100361.45;;;13.33;79.57
63281;BME280;49406;51.044;3.766;2022-11-15T11:55:37;100360.44;;;13.29;80.01
63281;BME280;49406;51.044;3.766;2022-11-15T11:58:16;100356.58;;;13.30;79.73
63281;BME280;49406;51.044;3.766;2022-11-15T12:00:54;100351.35;;;13.39;79.68
63281;BME280;49406;51.044;3.766;2022-11-15T12:03:33;100342.19;;;13.28;79.57
63281;BME280;49406;51.044;3.766;2022-11-15T12:06:20;100332.60;;;13.20;79.98
63281;BME280;49406;51.044;3.766;2022-11-15T12:09:00;100331.90;;;13.21;80.30
63281;BME280;49406;51.044;3.766;2022-11-15T12:11:38;100328.24;;;13.34;80.74
63281;BME280;49406;51.044;3.766;2022-11-15T12:14:26;100321.59;;;13.33;80.79
63281;BME280;49406;51.044;3.766;2022-11-15T12:17:01;100314.15;;;13.23;81.15
63281;BME280;49406;51.044;3.766;2022-11-15T12:19:36;100308.04;;;13.20;81.22
63281;BME280;49406;51.044;3.766;2022-11-15T12:22:16;100301.97;;;13.30;81.73
63281;BME280;49406;51.044;3.766;2022-11-15T12:24:58;100298.82;;;13.28;81.18
63281;BME280;49406;51.044;3.766;2022-11-15T12:27:38;100293.67;;;13.18;82.49
63281;BME280;49406;51.044;3.766;2022-11-15T12:30:16;100288.20;;;13.19;83.09
63281;BME280;49406;51.044;3.766;2022-11-15T12:32:55;100277.48;;;13.36;82.82
63281;BME280;49406;51.044;3.766;2022-11-15T12:35:36;100266.20;;;13.39;81.98
63281;BME280;49406;51.044;3.766;2022-11-15T12:38:12;100259.65;;;13.31;82.10
63281;BME280;49406;51.044;3.766;2022-11-15T12:41:15;100255.27;;;13.31;83.00
63281;BME280;49406;51.044;3.766;2022-11-15T12:43:51;100243.71;;;13.41;81.97
63281;BME280;49406;51.044;3.766;2022-11-15T12:47:03;100245.61;;;13.43;82.47
63281;BME280;49406;51.044;3.766;2022-11-15T12:49:46;100233.74;;;13.37;82.73
63281;BME280;49406;51.044;3.766;2022-11-15T12:52:21;100224.88;;;13.45;82.84
63281;BME280;49406;51.044;3.766;2022-11-15T12:55:00;100217.64;;;13.48;82.52
63281;BME280;49406;51.044;3.766;2022-11-15T12:57:41;100219.33;;;13.39;83.14
63281;BME280;49406;51.044;3.766;2022-11-15T13:00:41;100214.45;;;13.37;83.90
63281;BME280;49406;51.044;3.766;2022-11-15T13:03:25;100204.14;;;13.47;82.88
63281;BME280;49406;51.044;3.766;2022-11-15T13:06:10;100200.11;;;13.45;82.89
63281;BME280;49406;51.044;3.766;2022-11-15T13:09:49;100197.96;;;13.36;83.58
63281;BME280;49406;51.044;3.766;2022-11-15T13:12:01;100195.52;;;13.35;83.45
63281;BME280;49406;51.044;3.766;2022-11-15T13:14:44;100186.98;;;13.43;83.05
63281;BME280;49406;51.044;3.766;2022-11-15T13:17:30;100190.80;;;13.34;83.52
63281;BME280;49406;51.044;3.766;2022-11-15T13:20:27;100185.44;;;13.28;84.28
63281;BME280;49406;51.044;3.766;2022-11-15T13:23:09;100175.82;;;13.37;83.82
63281;BME280;49406;51.044;3.766;2022-11-15T13:25:57;100172.89;;;13.34;83.97
63281;BME280;49406;51.044;3.766;2022-11-15T13:28:38;100170.23;;;13.22;84.41
63281;BME280;49406;51.044;3.766;2022-11-15T13:31:29;100166.67;;;13.27;84.45
63281;BME280;49406;51.044;3.766;2022-11-15T13:34:17;100166.08;;;13.32;84.34
63281;BME280;49406;51.044;3.766;2022-11-15T13:36:54;100158.17;;;13.18;84.88
63281;BME280;49406;51.044;3.766;2022-11-15T13:39:32;100158.95;;;13.12;85.64
63281;BME280;49406;51.044;3.766;2022-11-15T13:42:10;100153.80;;;13.16;86.25
63281;BME280;49406;51.044;3.766;2022-11-15T13:44:58;100148.29;;;13.07;87.60
63281;BME280;49406;51.044;3.766;2022-11-15T13:47:33;100145.36;;;12.89;89.10
63281;BME280;49406;51.044;3.766;2022-11-15T13:50:12;100139.59;;;12.87;89.60